createdAt,value
2023-04-01T00:03:11.974Z,9.99
2023-04-01T00:07:18.017Z,10.00
2023-04-01T00:12:27.799Z,9.93
2023-04-01T00:19:54.370Z,9.80
2023-04-01T00:48:05.378Z,9.79
2023-04-01T00:52:33.849Z,9.84
2023-04-01T01:01:11.696Z,9.76
2023-04-01T01:05:49.429Z,9.80
2023-04-01T01:27:48.293Z,10.34
2023-04-01T01:31:56.042Z,10.53
2023-04-01T01:35:25.291Z,10.10
2023-04-01T01:39:13.708Z,10.01
2023-04-01T01:42:53.713Z,9.92
2023-04-01T01:50:25.315Z,10.14
2023-04-01T01:53:58.890Z,10.27
2023-04-01T01:57:54.059Z,10.17
2023-04-01T02:01:17.745Z,10.28
2023-04-01T02:04:40.764Z,10.38
2023-04-01T02:08:01.087Z,10.49
2023-04-01T02:11:51.342Z,10.50
2023-04-01T02:15:03.824Z,10.53
2023-04-01T02:18:12.279Z,10.47
2023-04-01T02:21:24.809Z,10.47
2023-04-01T02:24:35.767Z,10.43
2023-04-01T02:27:39.940Z,10.39
2023-04-01T02:30:49.488Z,10.52
2023-04-01T02:33:58.886Z,10.39
2023-04-01T02:37:12.421Z,10.22
2023-04-01T02:40:24.684Z,10.37
2023-04-01T02:43:33.896Z,10.38
2023-04-01T02:46:40.102Z,10.35
2023-04-01T02:49:49.595Z,10.35
2023-04-01T02:52:54.833Z,10.35
2023-04-01T02:56:00.551Z,10.37
2023-04-01T02:59:07.999Z,10.43
2023-04-01T03:02:16.963Z,10.16
2023-04-01T03:05:22.844Z,10.25
2023-04-01T03:08:51.809Z,10.30
2023-04-01T03:11:58.158Z,10.20
2023-04-01T03:15:10.413Z,10.08
2023-04-01T03:18:20.560Z,10.16
2023-04-01T03:21:37.312Z,9.95
2023-04-01T03:25:00.916Z,9.93
2023-04-01T03:28:06.738Z,9.98
2023-04-01T03:31:12.400Z,10.09
2023-04-01T03:34:30.402Z,10.18
2023-04-01T03:37:37.157Z,9.94
2023-04-01T03:40:54.885Z,9.91
2023-04-01T03:44:06.115Z,9.85
2023-04-01T03:47:16.983Z,9.88
2023-04-01T03:50:23.640Z,9.97
2023-04-01T03:53:43.418Z,9.82
2023-04-01T03:56:53.441Z,9.91
2023-04-01T04:00:10.219Z,9.65
2023-04-01T04:03:13.666Z,9.78
2023-04-01T04:06:19.744Z,9.66
2023-04-01T04:09:30.812Z,9.59
2023-04-01T04:12:38.271Z,9.57
2023-04-01T04:15:48.107Z,9.65
2023-04-01T04:18:52.922Z,9.61
2023-04-01T04:21:59.159Z,9.55
2023-04-01T04:25:09.103Z,9.53
2023-04-01T04:28:28.339Z,9.40
2023-04-01T04:31:35.231Z,9.43
2023-04-01T04:34:40.331Z,9.49
2023-04-01T04:37:51.277Z,9.61
2023-04-01T04:41:04.305Z,9.63
2023-04-01T04:44:32.834Z,9.62
2023-04-01T04:51:16.244Z,9.65
2023-04-01T04:54:27.428Z,9.61
2023-04-01T04:57:40.501Z,9.75
2023-04-01T05:00:50.431Z,9.71
2023-04-01T05:03:59.134Z,9.88
2023-04-01T05:07:07.827Z,9.76
2023-04-01T05:10:17.969Z,9.79
2023-04-01T05:13:31.373Z,9.80
2023-04-01T05:17:10.446Z,9.81
2023-04-01T05:20:29.424Z,9.82
2023-04-01T05:23:44.560Z,10.05
2023-04-01T05:27:12.286Z,10.12
2023-04-01T05:30:29.095Z,10.16
2023-04-01T05:33:36.870Z,10.18
2023-04-01T05:36:44.742Z,9.97
2023-04-01T05:39:53.864Z,10.31
2023-04-01T05:43:02.771Z,10.47
2023-04-01T05:46:16.034Z,10.41
2023-04-01T05:49:22.738Z,10.49
2023-04-01T05:52:33.578Z,10.50
2023-04-01T05:55:38.391Z,10.54
2023-04-01T05:59:03.792Z,10.66
2023-04-01T06:02:14.232Z,10.81
2023-04-01T06:05:33.393Z,10.89
2023-04-01T06:08:39.831Z,10.91
2023-04-01T06:12:04.497Z,11.11
2023-04-01T06:18:57.202Z,11.27
2023-04-01T06:27:51.247Z,11.21
2023-04-01T06:35:54.202Z,11.28
2023-04-01T06:40:13.399Z,11.52
2023-04-01T06:44:13.273Z,11.87
2023-04-01T06:48:19.175Z,11.67
2023-04-01T07:09:28.582Z,12.05
2023-04-01T07:13:34.423Z,12.52
2023-04-01T07:17:07.759Z,12.72
2023-04-01T07:20:44.502Z,12.30
2023-04-01T07:24:37.916Z,12.14
2023-04-01T07:33:29.331Z,12.29
2023-04-01T07:42:40.203Z,12.27
2023-04-01T07:46:43.102Z,12.50
2023-04-01T07:50:36.151Z,12.13
2023-04-01T07:55:12.963Z,12.55
2023-04-01T07:59:41.316Z,12.83
2023-04-01T08:03:08.694Z,13.14
2023-04-01T08:07:18.738Z,13.17
2023-04-01T08:10:59.368Z,12.85
2023-04-01T08:14:30.861Z,13.05
2023-04-01T08:17:58.137Z,12.98
2023-04-01T08:21:28.822Z,13.00
2023-04-01T08:24:47.500Z,12.99
2023-04-01T08:28:23.442Z,12.91
2023-04-01T08:32:19.732Z,12.91
2023-04-01T08:35:42.124Z,13.23
2023-04-01T08:43:20.492Z,13.04
2023-04-01T08:46:48.635Z,13.42
2023-04-01T08:50:00.813Z,13.54
2023-04-01T08:53:30.815Z,13.63
2023-04-01T09:00:27.721Z,13.30
2023-04-01T09:03:56.461Z,13.17
2023-04-01T09:07:05.399Z,13.36
2023-04-01T09:10:41.869Z,13.19
2023-04-01T09:14:17.026Z,13.29
2023-04-01T09:17:54.470Z,13.40
2023-04-01T09:21:16.605Z,13.46
2023-04-01T09:25:01.342Z,13.81
2023-04-01T09:28:42.161Z,13.73
2023-04-01T09:32:24.915Z,13.49
2023-04-01T09:35:42.884Z,13.38
2023-04-01T09:39:10.913Z,13.23
2023-04-01T09:42:57.784Z,13.09
2023-04-01T09:46:27.083Z,12.91
2023-04-01T09:50:03.492Z,13.20
2023-04-01T09:53:29.692Z,13.19
2023-04-01T09:56:51.607Z,13.20
2023-04-01T10:00:14.002Z,13.38
2023-04-01T10:03:58.018Z,13.57
2023-04-01T10:07:44.475Z,13.13
2023-04-01T10:11:21.537Z,13.13
2023-04-01T10:15:22.090Z,13.28
2023-04-01T10:18:59.257Z,13.51
2023-04-01T10:22:36.623Z,13.65
2023-04-01T10:26:19.837Z,13.60
2023-04-01T10:29:30.769Z,13.53
2023-04-01T10:33:25.311Z,13.55
2023-04-01T10:36:56.097Z,13.41
2023-04-01T10:40:49.644Z,13.50
2023-04-01T10:44:11.956Z,13.87
2023-04-01T10:47:30.533Z,13.65
2023-04-01T10:51:22.846Z,13.54
2023-04-01T10:59:28.723Z,14.03
2023-04-01T11:03:28.778Z,13.98
2023-04-01T11:07:16.898Z,13.96
2023-04-01T11:10:38.656Z,13.93
2023-04-01T11:14:30.406Z,14.10
2023-04-01T11:18:24.337Z,14.30
2023-04-01T11:22:11.003Z,14.50
2023-04-01T11:26:32.456Z,14.64
2023-04-01T11:30:22.394Z,14.90
2023-04-01T11:34:05.701Z,14.89
2023-04-01T11:37:46.932Z,14.38
2023-04-01T11:41:43.030Z,14.34
2023-04-01T11:46:01.931Z,14.26
2023-04-01T11:49:54.924Z,13.95
2023-04-01T11:53:47.234Z,13.78
2023-04-01T11:57:14.496Z,13.77
2023-04-01T12:01:06.967Z,13.49
2023-04-01T12:09:30.638Z,13.76
2023-04-01T12:13:12.305Z,13.84
2023-04-01T12:16:25.221Z,14.08
2023-04-01T12:19:45.772Z,14.38
2023-04-01T12:23:12.070Z,14.21
2023-04-01T12:26:58.639Z,14.41
2023-04-01T12:30:44.495Z,14.40
2023-04-01T12:34:28.203Z,14.21
2023-04-01T12:37:50.818Z,14.28
2023-04-01T12:41:11.902Z,14.15
2023-04-01T12:45:01.636Z,14.30
2023-04-01T12:48:43.396Z,14.47
2023-04-01T12:52:03.788Z,14.60
2023-04-01T12:55:28.542Z,14.14
2023-04-01T12:59:22.984Z,14.17
2023-04-01T13:03:05.399Z,14.37
2023-04-01T13:06:33.102Z,14.43
2023-04-01T13:09:59.499Z,14.35
2023-04-01T13:13:23.755Z,14.42
2023-04-01T13:16:56.392Z,14.41
2023-04-01T13:20:06.239Z,14.42
2023-04-01T13:23:32.657Z,14.50
2023-04-01T13:26:45.525Z,14.59
2023-04-01T13:30:05.294Z,14.51
2023-04-01T13:33:34.581Z,14.43
2023-04-01T13:37:24.516Z,14.49
2023-04-01T13:41:05.238Z,14.56
2023-04-01T13:44:19.871Z,14.72
2023-04-01T13:48:02.512Z,14.49
2023-04-01T13:51:15.037Z,14.80
2023-04-01T13:54:35.927Z,14.61
2023-04-01T13:58:06.937Z,14.51
2023-04-01T14:01:33.231Z,14.32
2023-04-01T14:05:49.702Z,14.35
2023-04-01T14:09:20.713Z,14.13
2023-04-01T14:12:55.407Z,14.06
2023-04-01T14:16:44.796Z,13.93
2023-04-01T14:20:22.388Z,13.83
2023-04-01T14:30:56.555Z,13.40
2023-04-01T14:34:25.518Z,13.50
2023-04-01T14:38:27.037Z,13.50
2023-04-01T14:42:21.076Z,13.56
2023-04-01T14:45:58.985Z,13.65
2023-04-01T14:49:33.536Z,13.86
2023-04-01T14:57:39.021Z,13.99
2023-04-01T15:01:36.599Z,14.11
2023-04-01T15:05:19.442Z,14.06
2023-04-01T15:22:53.966Z,14.54
2023-04-01T15:26:53.639Z,14.50
2023-04-01T15:35:19.017Z,14.62
2023-04-01T15:39:49.892Z,14.72
2023-04-01T15:44:12.681Z,14.74
2023-04-01T15:48:03.544Z,14.68
2023-04-01T15:51:59.933Z,14.66
2023-04-01T16:00:15.949Z,14.63
2023-04-01T16:04:15.406Z,14.65
2023-04-01T16:08:30.929Z,14.62
2023-04-01T16:12:44.239Z,14.63
2023-04-01T16:17:13.318Z,14.69
2023-04-01T16:21:20.145Z,14.78
2023-04-01T16:25:05.563Z,14.67
2023-04-01T16:29:21.390Z,14.73
2023-04-01T16:32:39.043Z,14.64
2023-04-01T16:36:41.660Z,14.68
2023-04-01T16:40:45.632Z,14.67
2023-04-01T16:49:07.672Z,14.40
2023-04-01T16:53:16.197Z,14.32
2023-04-01T16:57:53.564Z,14.25
2023-04-01T17:02:11.565Z,14.20
2023-04-01T17:06:32.011Z,14.20
2023-04-01T17:29:49.170Z,13.83
2023-04-01T17:56:38.789Z,13.51
2023-04-01T18:04:26.227Z,13.59
2023-04-01T18:12:08.973Z,13.50
2023-04-01T18:16:05.162Z,13.41
2023-04-01T18:25:40.391Z,13.18
2023-04-01T18:30:37.564Z,13.25
2023-04-01T18:34:58.925Z,13.02
2023-04-01T18:38:44.248Z,12.90
2023-04-01T18:51:27.149Z,12.89
2023-04-01T18:55:06.570Z,12.91
2023-04-01T18:58:35.010Z,12.82
2023-04-01T19:02:13.294Z,12.76
2023-04-01T19:05:38.070Z,12.64
2023-04-01T19:09:26.131Z,12.62
2023-04-01T19:12:41.522Z,12.61
2023-04-01T19:16:31.339Z,12.68
2023-04-01T19:20:27.854Z,12.65
2023-04-01T19:23:58.146Z,12.46
2023-04-01T19:27:18.626Z,12.38
2023-04-01T19:30:47.800Z,12.39
2023-04-01T19:34:06.316Z,12.30
2023-04-01T19:37:50.944Z,12.34
2023-04-01T19:41:31.172Z,12.36
2023-04-01T19:45:19.884Z,12.30
2023-04-01T19:49:22.011Z,12.53
2023-04-01T19:56:24.436Z,12.44
2023-04-01T19:59:39.785Z,12.21
2023-04-01T20:03:48.223Z,12.30
2023-04-01T20:07:26.939Z,12.13
2023-04-01T20:11:32.030Z,12.08
2023-04-01T20:15:09.490Z,11.83
2023-04-01T20:19:12.012Z,11.98
2023-04-01T20:23:02.707Z,11.95
2023-04-01T20:26:22.128Z,11.91
2023-04-01T20:29:59.302Z,11.99
2023-04-01T20:33:16.904Z,11.97
2023-04-01T20:36:43.020Z,11.88
2023-04-01T20:40:20.261Z,11.78
2023-04-01T20:43:50.556Z,11.86
2023-04-01T20:47:49.152Z,11.80
2023-04-01T20:51:18.011Z,11.66
2023-04-01T20:54:32.491Z,11.70
2023-04-01T20:58:30.840Z,11.52
2023-04-01T21:01:47.695Z,11.56
2023-04-01T21:05:37.443Z,11.24
2023-04-01T21:09:06.093Z,11.09
2023-04-01T21:12:36.926Z,11.02
2023-04-01T21:16:13.995Z,10.85
2023-04-01T21:19:44.471Z,10.88
2023-04-01T21:23:11.595Z,10.69
2023-04-01T21:27:01.036Z,10.97
2023-04-01T21:30:40.437Z,11.12
2023-04-01T21:34:24.785Z,11.12
2023-04-01T21:37:40.922Z,11.02
2023-04-01T21:41:37.508Z,10.91
2023-04-01T21:45:08.630Z,10.70
2023-04-01T21:49:18.017Z,10.89
2023-04-01T21:53:12.454Z,10.87
2023-04-01T22:00:42.363Z,11.14
2023-04-01T22:04:29.731Z,11.17
2023-04-01T22:08:45.947Z,11.25
2023-04-01T22:31:01.461Z,11.16
2023-04-01T22:34:36.371Z,11.10
2023-04-01T22:42:03.046Z,11.14
2023-04-01T22:45:52.293Z,10.95
2023-04-01T22:49:27.170Z,11.02
2023-04-01T22:54:16.219Z,10.93
2023-04-01T22:58:50.772Z,10.77
2023-04-01T23:03:32.534Z,10.90
2023-04-01T23:07:45.222Z,10.86
2023-04-01T23:15:14.246Z,10.88
2023-04-01T23:18:53.956Z,10.92
2023-04-01T23:26:51.358Z,10.83
2023-04-01T23:30:56.177Z,10.72
2023-04-01T23:39:21.549Z,10.72
2023-04-01T23:47:53.805Z,10.68
2023-04-01T23:51:41.012Z,10.60
2023-04-01T23:54:58.543Z,10.44
2023-04-01T23:58:44.824Z,10.29
